Weather at University Park Airport

Public forecast

Using degrees Fahrenheit for public forecast. Weather courtesy of forecast.io.

Current aviation weather report (METAR) for University Park Airport

Retrieved 2021/09/28 17:53 UTC (32 minutes ago):

KUNV 281753Z 27005KT 8SM BKN021 BKN029 21/18 A2990

Aviation forecast (TAF) for University Park Airport

Retrieved 2021/09/28 18:28 UTC (0 seconds ago):

TAF KUNV 281726Z 2818/2918 29010KT 6SM -SHRA BKN025 FM282000 32007KT P6SM BKN035 FM290300 34004KT P6SM SCT035 FM290900 VRB02KT P6SM VCFG FEW035 FM291300 33005KT P6SM SCT035